createdAt,value
2023-02-16T00:00:34.512Z,42.73
2023-02-16T00:03:03.030Z,36.10
2023-02-16T00:05:32.953Z,39.43
2023-02-16T00:08:01.045Z,37.27
2023-02-16T00:10:33.140Z,33.57
2023-02-16T00:13:18.787Z,40.27
2023-02-16T00:15:46.986Z,38.77
2023-02-16T00:18:17.632Z,37.57
2023-02-16T00:20:45.774Z,40.30
2023-02-16T00:23:13.649Z,34.37
2023-02-16T00:25:42.932Z,40.17
2023-02-16T00:28:17.495Z,39.57
2023-02-16T00:30:46.072Z,38.53
2023-02-16T00:33:16.493Z,40.17
2023-02-16T00:35:45.354Z,38.70
2023-02-16T00:38:13.499Z,40.47
2023-02-16T00:40:43.405Z,41.00
2023-02-16T00:43:20.341Z,40.07
2023-02-16T00:45:49.083Z,40.67
2023-02-16T00:48:16.793Z,38.57
2023-02-16T00:50:44.693Z,37.77
2023-02-16T00:53:12.720Z,33.43
2023-02-16T00:55:42.720Z,35.57
2023-02-16T00:58:16.327Z,35.13
2023-02-16T01:00:47.923Z,34.47
2023-02-16T01:03:17.702Z,42.67
2023-02-16T01:05:46.645Z,40.70
2023-02-16T01:08:35.110Z,39.83
2023-02-16T01:11:09.954Z,33.93
2023-02-16T01:13:41.552Z,37.10
2023-02-16T01:16:17.445Z,39.23
2023-02-16T01:18:45.987Z,32.70
2023-02-16T01:21:14.212Z,41.17
2023-02-16T01:23:42.240Z,37.10
2023-02-16T01:26:15.765Z,38.77
2023-02-16T01:28:45.057Z,46.40
2023-02-16T01:31:13.568Z,42.37
2023-02-16T01:33:42.700Z,43.40
2023-02-16T01:36:21.190Z,37.47
2023-02-16T01:38:49.066Z,47.47
2023-02-16T01:41:23.573Z,39.40
2023-02-16T01:43:54.114Z,37.20
2023-02-16T01:46:31.214Z,42.17
2023-02-16T01:48:59.868Z,36.57
2023-02-16T01:51:30.349Z,42.40
2023-02-16T01:54:03.382Z,43.30
2023-02-16T01:56:37.480Z,41.90
2023-02-16T01:59:10.345Z,44.20
2023-02-16T02:01:42.216Z,43.23
2023-02-16T02:04:33.549Z,39.63
2023-02-16T02:07:01.856Z,42.40
2023-02-16T02:09:37.484Z,42.03
2023-02-16T02:12:16.405Z,45.97
2023-02-16T02:14:44.953Z,36.80
2023-02-16T02:17:16.062Z,50.50
2023-02-16T02:19:50.500Z,40.50
2023-02-16T02:23:24.037Z,40.80
2023-02-16T02:26:42.311Z,40.17
2023-02-16T02:29:42.003Z,43.43
2023-02-16T02:32:19.632Z,43.10
2023-02-16T02:35:00.195Z,41.93
2023-02-16T02:37:37.852Z,40.80
2023-02-16T02:40:09.977Z,41.03
2023-02-16T02:42:42.527Z,42.60
2023-02-16T02:45:16.104Z,50.83
2023-02-16T02:47:47.177Z,46.67
2023-02-16T02:51:02.474Z,43.60
2023-02-16T02:53:30.898Z,47.73
2023-02-16T02:56:18.039Z,49.97
2023-02-16T02:59:05.100Z,59.90
2023-02-16T03:01:35.988Z,56.63
2023-02-16T03:04:05.605Z,65.93
2023-02-16T03:06:35.289Z,76.33
2023-02-16T03:09:06.964Z,72.60
2023-02-16T03:11:52.013Z,85.30
2023-02-16T03:14:21.773Z,73.70
2023-02-16T03:17:10.882Z,79.20
2023-02-16T03:19:57.513Z,87.20
2023-02-16T03:22:43.217Z,84.23
2023-02-16T03:25:28.334Z,88.30
2023-02-16T03:28:14.522Z,88.47
2023-02-16T03:30:43.382Z,77.33
2023-02-16T03:33:14.342Z,76.67
2023-02-16T03:35:42.166Z,71.07
2023-02-16T03:38:09.858Z,71.77
2023-02-16T03:40:40.942Z,71.10
2023-02-16T03:43:10.124Z,83.20
2023-02-16T03:45:40.503Z,68.03
2023-02-16T03:48:08.726Z,71.77
2023-02-16T03:50:37.754Z,72.70
2023-02-16T03:53:08.524Z,71.07
2023-02-16T03:55:37.479Z,68.80
2023-02-16T03:58:06.357Z,68.23
2023-02-16T04:00:34.611Z,67.60
2023-02-16T04:03:02.335Z,56.60
2023-02-16T04:05:31.824Z,65.83
2023-02-16T04:08:00.820Z,64.53
2023-02-16T04:10:29.189Z,60.20
2023-02-16T04:12:56.153Z,63.03
2023-02-16T04:15:26.130Z,59.80
2023-02-16T04:17:55.018Z,60.90
2023-02-16T04:20:25.907Z,60.90
2023-02-16T04:22:53.869Z,62.37
2023-02-16T04:25:23.857Z,59.30
2023-02-16T04:27:52.158Z,56.90
2023-02-16T04:30:21.650Z,52.87
2023-02-16T04:32:49.468Z,62.37
2023-02-16T04:35:17.345Z,58.60
2023-02-16T04:37:45.699Z,55.20
2023-02-16T04:40:14.502Z,53.87
2023-02-16T04:42:44.449Z,62.90
2023-02-16T04:45:13.490Z,58.67
2023-02-16T04:47:41.382Z,53.23
2023-02-16T04:50:10.198Z,56.03
2023-02-16T04:52:37.955Z,66.57
2023-02-16T04:55:07.575Z,57.30
2023-02-16T04:57:35.175Z,59.07
2023-02-16T05:00:04.849Z,53.43
2023-02-16T05:02:33.095Z,56.63
2023-02-16T05:05:00.905Z,64.30
2023-02-16T05:07:28.657Z,62.50
2023-02-16T05:09:56.320Z,54.77
2023-02-16T05:12:41.470Z,67.27
2023-02-16T05:15:10.592Z,57.77
2023-02-16T05:17:38.195Z,71.43
2023-02-16T05:20:07.251Z,50.47
2023-02-16T05:22:35.545Z,59.10
2023-02-16T05:25:03.231Z,57.53
2023-02-16T05:27:32.158Z,54.30
2023-02-16T05:29:59.981Z,51.63
2023-02-16T05:32:29.329Z,57.40
2023-02-16T05:34:57.350Z,64.73
2023-02-16T05:37:24.909Z,51.33
2023-02-16T05:39:53.729Z,51.87
2023-02-16T05:42:21.426Z,50.47
2023-02-16T05:44:49.079Z,57.57
2023-02-16T05:47:16.745Z,57.77
2023-02-16T05:49:45.711Z,54.93
2023-02-16T05:52:13.331Z,57.30
2023-02-16T05:54:40.995Z,51.50
2023-02-16T05:57:08.594Z,58.97
2023-02-16T05:59:36.152Z,52.80
2023-02-16T06:02:03.773Z,53.40
2023-02-16T06:04:32.526Z,56.00
2023-02-16T06:07:01.479Z,49.27
2023-02-16T06:09:31.257Z,48.57
2023-02-16T06:11:58.900Z,58.47
2023-02-16T06:14:26.731Z,53.63
2023-02-16T06:16:56.454Z,56.23
2023-02-16T06:19:24.451Z,56.87
2023-02-16T06:21:52.052Z,50.77
2023-02-16T06:24:21.045Z,57.87
2023-02-16T06:26:48.650Z,53.37
2023-02-16T06:29:16.264Z,53.87
2023-02-16T06:31:43.974Z,54.30
2023-02-16T06:34:11.672Z,58.50
2023-02-16T06:36:42.335Z,66.40
2023-02-16T06:39:10.202Z,53.37
2023-02-16T06:41:40.374Z,56.80
2023-02-16T06:44:12.157Z,51.30
2023-02-16T06:46:39.871Z,64.57
2023-02-16T06:49:07.478Z,50.03
2023-02-16T06:51:35.240Z,53.50
2023-02-16T06:54:02.822Z,56.20
2023-02-16T06:56:30.439Z,62.90
2023-02-16T06:58:59.412Z,54.87
2023-02-16T07:01:27.018Z,62.80
2023-02-16T07:03:56.378Z,55.20
2023-02-16T07:06:25.144Z,51.03
2023-02-16T07:08:53.457Z,58.17
2023-02-16T07:11:21.284Z,59.00
2023-02-16T07:13:49.231Z,61.67
2023-02-16T07:16:18.218Z,52.87
2023-02-16T07:18:46.238Z,56.60
2023-02-16T07:21:14.316Z,56.93
2023-02-16T07:23:41.958Z,58.53
2023-02-16T07:26:09.780Z,57.53
2023-02-16T07:28:37.427Z,57.10
2023-02-16T07:31:09.737Z,54.67
2023-02-16T07:33:39.300Z,52.90
2023-02-16T07:36:07.974Z,55.20
2023-02-16T07:38:35.662Z,54.03
2023-02-16T07:41:05.217Z,52.43
2023-02-16T07:43:34.555Z,54.67
2023-02-16T07:46:02.478Z,57.50
2023-02-16T07:48:30.051Z,54.17
2023-02-16T07:50:59.653Z,52.60
2023-02-16T07:53:27.273Z,57.40
2023-02-16T07:55:54.894Z,62.97
2023-02-16T07:58:28.163Z,63.30
2023-02-16T08:00:56.745Z,58.10
2023-02-16T08:03:24.754Z,46.00
2023-02-16T08:05:52.465Z,54.83
2023-02-16T08:08:21.428Z,49.93
2023-02-16T08:10:49.032Z,52.87
2023-02-16T08:13:16.595Z,45.77
2023-02-16T08:15:44.748Z,48.43
2023-02-16T08:18:12.661Z,48.93
2023-02-16T08:21:02.387Z,49.20
2023-02-16T08:23:29.642Z,50.07
2023-02-16T08:25:59.325Z,47.87
2023-02-16T08:28:28.354Z,51.67
2023-02-16T08:30:56.115Z,48.43
2023-02-16T08:33:23.753Z,52.80
2023-02-16T08:35:51.408Z,56.03
2023-02-16T08:38:19.044Z,53.00
2023-02-16T08:40:50.147Z,64.23
2023-02-16T08:43:17.811Z,54.00
2023-02-16T08:45:45.670Z,54.77
2023-02-16T08:48:13.261Z,50.33
2023-02-16T08:50:46.992Z,53.07
2023-02-16T08:53:15.453Z,55.90
2023-02-16T08:55:43.148Z,52.50
2023-02-16T08:58:12.080Z,54.77
2023-02-16T09:00:39.775Z,49.03
2023-02-16T09:03:07.567Z,45.23
2023-02-16T09:05:35.301Z,46.10
2023-02-16T09:08:03.377Z,50.20
2023-02-16T09:10:30.993Z,48.13
2023-02-16T09:12:58.543Z,54.77
2023-02-16T09:15:27.576Z,49.17
2023-02-16T09:17:55.258Z,47.80
2023-02-16T09:20:23.542Z,51.90
2023-02-16T09:22:51.149Z,54.57
2023-02-16T09:25:18.774Z,46.97
2023-02-16T09:27:46.676Z,50.30
2023-02-16T09:30:15.107Z,52.57
2023-02-16T09:32:44.053Z,52.50
2023-02-16T09:35:11.878Z,52.90
2023-02-16T09:37:39.449Z,49.43
2023-02-16T09:40:08.528Z,49.80
2023-02-16T09:42:47.493Z,44.83
2023-02-16T09:45:16.891Z,45.43
2023-02-16T09:47:47.414Z,44.27
2023-02-16T09:50:27.744Z,53.63
2023-02-16T09:53:03.563Z,47.60
2023-02-16T09:55:38.064Z,50.40
2023-02-16T09:58:09.582Z,54.27
2023-02-16T10:00:45.870Z,50.60
2023-02-16T10:03:28.839Z,48.93
2023-02-16T10:06:02.588Z,50.60
2023-02-16T10:08:32.835Z,75.00
2023-02-16T10:11:04.166Z,52.37
2023-02-16T10:13:38.871Z,57.63
2023-02-16T10:16:08.262Z,48.50
2023-02-16T10:18:39.542Z,51.40
2023-02-16T10:21:10.446Z,55.40
2023-02-16T10:23:45.465Z,54.27
2023-02-16T10:26:19.521Z,56.37
2023-02-16T10:28:48.554Z,52.87
2023-02-16T10:31:23.442Z,55.80
2023-02-16T10:34:13.555Z,54.33
2023-02-16T10:36:58.386Z,50.97
2023-02-16T10:39:29.263Z,51.17
2023-02-16T10:42:03.615Z,51.60
2023-02-16T10:44:34.996Z,49.87
2023-02-16T10:47:04.614Z,47.57
2023-02-16T10:49:33.949Z,57.10
2023-02-16T10:52:02.945Z,48.17
2023-02-16T10:54:32.097Z,55.37
2023-02-16T10:57:01.754Z,45.10
2023-02-16T10:59:37.907Z,49.33
2023-02-16T11:02:18.783Z,45.87
2023-02-16T11:04:49.556Z,54.93
2023-02-16T11:07:18.957Z,50.90
2023-02-16T11:09:48.615Z,52.77
2023-02-16T11:12:18.572Z,44.87
2023-02-16T11:14:51.141Z,47.30
2023-02-16T11:17:19.911Z,48.00
2023-02-16T11:19:54.291Z,52.37
2023-02-16T11:22:28.609Z,50.47
2023-02-16T11:24:56.530Z,51.80
2023-02-16T11:27:25.096Z,52.53
2023-02-16T11:30:22.174Z,49.93
2023-02-16T11:32:50.598Z,49.33
2023-02-16T11:35:20.154Z,49.80
2023-02-16T11:37:48.118Z,50.83
2023-02-16T11:40:21.875Z,46.70
2023-02-16T11:42:51.645Z,46.40
2023-02-16T11:45:30.922Z,54.27
2023-02-16T11:48:01.577Z,50.53
2023-02-16T11:50:32.194Z,49.80
2023-02-16T11:53:15.856Z,48.83
2023-02-16T11:55:45.267Z,53.10
2023-02-16T11:58:17.859Z,47.93
2023-02-16T12:00:55.248Z,47.13
2023-02-16T12:03:39.165Z,54.07
2023-02-16T12:06:16.232Z,55.70
2023-02-16T12:08:58.160Z,49.30
2023-02-16T12:11:31.553Z,51.20
2023-02-16T12:14:09.071Z,49.17
2023-02-16T12:16:43.198Z,51.03
2023-02-16T12:19:21.066Z,57.60
2023-02-16T12:21:52.308Z,56.30
2023-02-16T12:24:31.975Z,66.83
2023-02-16T12:27:02.646Z,52.50
2023-02-16T12:29:39.053Z,53.53
2023-02-16T12:32:21.953Z,56.37
2023-02-16T12:35:01.574Z,68.90
2023-02-16T12:37:35.302Z,60.87
2023-02-16T12:40:11.552Z,61.87
2023-02-16T12:42:49.574Z,58.60
2023-02-16T12:45:19.792Z,69.00
2023-02-16T12:47:49.715Z,72.33
2023-02-16T12:50:21.535Z,64.40
2023-02-16T12:52:55.155Z,57.97
2023-02-16T12:55:27.385Z,62.57
2023-02-16T12:57:59.407Z,55.67
2023-02-16T13:00:36.914Z,66.23
2023-02-16T13:03:14.542Z,66.57
2023-02-16T13:05:42.857Z,64.03
2023-02-16T13:08:16.912Z,72.73
2023-02-16T13:10:54.129Z,79.17
2023-02-16T13:13:25.288Z,71.53
2023-02-16T13:15:57.733Z,76.53
2023-02-16T13:18:28.447Z,68.50
2023-02-16T13:20:59.908Z,77.33
2023-02-16T13:23:39.067Z,63.87
2023-02-16T13:26:17.921Z,78.20
2023-02-16T13:28:58.847Z,77.73
2023-02-16T13:31:48.016Z,74.07
2023-02-16T13:34:44.537Z,74.87
2023-02-16T13:37:24.544Z,72.83
2023-02-16T13:40:06.031Z,74.87
2023-02-16T13:42:52.023Z,77.80
2023-02-16T13:45:21.367Z,68.73
2023-02-16T13:47:49.760Z,80.47
2023-02-16T13:50:30.235Z,66.57
2023-02-16T13:53:02.191Z,71.40
2023-02-16T13:55:33.604Z,70.57
2023-02-16T13:58:06.509Z,60.63
2023-02-16T14:00:36.934Z,72.37
2023-02-16T14:03:12.106Z,62.07
2023-02-16T14:05:41.689Z,70.43
2023-02-16T14:08:22.102Z,65.67
2023-02-16T14:11:09.641Z,64.10
2023-02-16T14:13:51.305Z,67.07
2023-02-16T14:16:31.531Z,77.10
2023-02-16T14:19:01.143Z,70.17
2023-02-16T14:21:33.291Z,65.03
2023-02-16T14:24:03.110Z,70.87
2023-02-16T14:26:32.915Z,75.47
2023-02-16T14:29:12.463Z,66.87
2023-02-16T14:31:48.765Z,64.13
2023-02-16T14:34:20.532Z,79.67
2023-02-16T14:37:29.168Z,69.73
2023-02-16T14:40:07.906Z,70.83
2023-02-16T14:42:38.447Z,67.97
2023-02-16T14:45:19.693Z,62.10
2023-02-16T14:47:57.518Z,66.10
2023-02-16T14:50:37.147Z,58.50
2023-02-16T14:53:20.748Z,64.00
2023-02-16T14:56:11.849Z,62.40
2023-02-16T14:58:48.328Z,61.37
2023-02-16T15:01:17.835Z,56.37
2023-02-16T15:03:48.062Z,64.63
2023-02-16T15:06:21.023Z,64.53
2023-02-16T15:08:56.969Z,61.57
2023-02-16T15:11:30.333Z,59.30
2023-02-16T15:14:05.396Z,53.17
2023-02-16T15:16:33.610Z,59.93
2023-02-16T15:19:04.670Z,60.00
2023-02-16T15:21:33.183Z,60.90
2023-02-16T15:24:02.013Z,58.70
2023-02-16T15:26:31.583Z,61.53
2023-02-16T15:29:00.547Z,63.57
2023-02-16T15:31:33.267Z,60.57
2023-02-16T15:34:05.629Z,62.73
2023-02-16T15:36:35.915Z,64.37
2023-02-16T15:39:06.952Z,64.67
2023-02-16T15:41:37.367Z,64.60
2023-02-16T15:44:07.369Z,61.43
2023-02-16T15:46:38.239Z,56.37
2023-02-16T15:49:13.265Z,55.60
2023-02-16T15:51:43.168Z,58.30
2023-02-16T15:54:19.954Z,67.40
2023-02-16T15:56:49.032Z,66.10
2023-02-16T15:59:27.548Z,65.17
2023-02-16T16:02:01.919Z,73.43
2023-02-16T16:04:29.811Z,63.60
2023-02-16T16:06:57.946Z,64.93
2023-02-16T16:09:27.666Z,64.80
2023-02-16T16:11:57.630Z,68.30
2023-02-16T16:14:27.004Z,63.67
2023-02-16T16:16:55.818Z,64.17
2023-02-16T16:19:32.860Z,74.60
2023-02-16T16:22:01.193Z,68.27
2023-02-16T16:24:33.954Z,83.57
2023-02-16T16:27:04.335Z,76.23
2023-02-16T16:29:38.540Z,74.60
2023-02-16T16:32:08.242Z,78.57
2023-02-16T16:34:39.201Z,75.50
2023-02-16T16:37:08.395Z,79.80
2023-02-16T16:39:39.164Z,77.33
2023-02-16T16:42:20.004Z,80.53
2023-02-16T16:45:07.618Z,83.97
2023-02-16T16:47:38.561Z,81.30
2023-02-16T16:50:30.032Z,80.40
2023-02-16T16:52:58.692Z,79.90
2023-02-16T16:55:32.783Z,78.33
2023-02-16T16:58:03.266Z,73.73
2023-02-16T17:00:34.394Z,82.50
2023-02-16T17:03:02.643Z,74.20
2023-02-16T17:05:31.786Z,69.70
2023-02-16T17:07:59.467Z,67.50
2023-02-16T17:10:27.546Z,61.13
2023-02-16T17:12:57.562Z,69.70
2023-02-16T17:15:32.817Z,59.23
2023-02-16T17:18:00.971Z,59.50
2023-02-16T17:20:28.706Z,64.90
2023-02-16T17:22:58.654Z,61.17
2023-02-16T17:25:26.600Z,61.53
2023-02-16T17:27:54.264Z,59.67
2023-02-16T17:30:22.325Z,58.73
2023-02-16T17:32:50.089Z,63.53
2023-02-16T17:35:18.069Z,67.60
2023-02-16T17:37:45.876Z,58.30
2023-02-16T17:40:19.474Z,58.10
2023-02-16T17:42:47.712Z,57.67
2023-02-16T17:45:22.484Z,59.90
2023-02-16T17:47:52.499Z,63.07
2023-02-16T17:50:21.227Z,56.57
2023-02-16T17:52:48.979Z,58.90
2023-02-16T17:55:18.388Z,58.00
2023-02-16T17:57:46.621Z,62.43
2023-02-16T18:00:17.603Z,63.93
2023-02-16T18:02:45.401Z,63.30
2023-02-16T18:05:13.201Z,61.87
2023-02-16T18:07:41.109Z,71.43
2023-02-16T18:10:15.196Z,62.53
2023-02-16T18:12:44.241Z,64.13
2023-02-16T18:15:12.004Z,61.10
2023-02-16T18:17:39.619Z,69.57
2023-02-16T18:20:09.262Z,66.00
2023-02-16T18:22:36.936Z,62.17
2023-02-16T18:25:05.199Z,68.03
2023-02-16T18:27:33.134Z,58.53
2023-02-16T18:30:02.382Z,56.20
2023-02-16T18:32:30.054Z,60.90
2023-02-16T18:34:58.369Z,77.47
2023-02-16T18:37:26.279Z,63.17
2023-02-16T18:39:55.622Z,69.23
2023-02-16T18:42:23.735Z,67.73
2023-02-16T18:44:51.507Z,58.13
2023-02-16T18:47:20.943Z,58.10
2023-02-16T18:49:50.497Z,61.30
2023-02-16T18:52:18.581Z,62.67
2023-02-16T18:54:46.510Z,57.57
2023-02-16T18:57:15.071Z,54.67
2023-02-16T18:59:43.182Z,56.80
2023-02-16T19:02:12.342Z,54.53
2023-02-16T19:04:41.559Z,57.13
2023-02-16T19:07:09.377Z,58.60
2023-02-16T19:09:37.400Z,64.30
2023-02-16T19:12:05.476Z,67.00
2023-02-16T19:14:33.388Z,64.73
2023-02-16T19:17:01.283Z,66.47
2023-02-16T19:19:30.821Z,61.87
2023-02-16T19:22:02.842Z,66.60
2023-02-16T19:24:31.087Z,63.10
2023-02-16T19:26:58.747Z,66.27
2023-02-16T19:29:26.545Z,66.27
2023-02-16T19:31:58.060Z,67.67
2023-02-16T19:34:26.127Z,76.70
2023-02-16T19:36:54.051Z,62.87
2023-02-16T19:39:23.668Z,72.33
2023-02-16T19:41:51.938Z,66.53
2023-02-16T19:44:20.162Z,74.27
2023-02-16T19:46:48.202Z,66.67
2023-02-16T19:49:17.101Z,73.67
2023-02-16T19:51:46.356Z,74.47
2023-02-16T19:54:14.605Z,84.00
2023-02-16T19:56:43.748Z,87.77
2023-02-16T19:59:11.646Z,79.20
2023-02-16T20:01:39.544Z,82.67
2023-02-16T20:04:07.541Z,91.20
2023-02-16T20:06:39.170Z,80.07
2023-02-16T20:09:07.776Z,74.10
2023-02-16T20:11:35.864Z,82.00
2023-02-16T20:14:05.022Z,83.23
2023-02-16T20:16:33.029Z,82.07
2023-02-16T20:19:00.986Z,75.57
2023-02-16T20:21:29.486Z,80.17
2023-02-16T20:23:59.501Z,82.90
2023-02-16T20:26:34.391Z,82.23
2023-02-16T20:29:02.944Z,76.60
2023-02-16T20:31:35.120Z,78.50
2023-02-16T20:34:03.160Z,78.97
2023-02-16T20:36:31.661Z,81.67
2023-02-16T20:38:59.760Z,74.03
2023-02-16T20:41:27.727Z,79.63
2023-02-16T20:43:55.471Z,82.90
2023-02-16T20:46:23.975Z,78.33
2023-02-16T20:48:53.989Z,76.07
2023-02-16T20:51:22.367Z,76.03
2023-02-16T20:53:50.411Z,83.73
2023-02-16T20:56:21.397Z,95.23
2023-02-16T20:58:50.526Z,84.50
2023-02-16T21:01:23.814Z,80.83
2023-02-16T21:03:53.644Z,97.17
2023-02-16T21:06:23.498Z,89.20
2023-02-16T21:08:51.847Z,84.87
2023-02-16T21:11:19.804Z,83.97
2023-02-16T21:13:47.906Z,94.23
2023-02-16T21:16:16.006Z,91.37
2023-02-16T21:18:44.793Z,89.63
2023-02-16T21:21:15.623Z,75.67
2023-02-16T21:23:44.424Z,92.80
2023-02-16T21:26:12.831Z,88.03
2023-02-16T21:28:41.313Z,92.83
2023-02-16T21:31:14.066Z,91.93
2023-02-16T21:33:42.246Z,94.57
2023-02-16T21:36:12.623Z,91.40
2023-02-16T21:38:42.341Z,82.30
2023-02-16T21:41:24.481Z,92.27
2023-02-16T21:43:58.583Z,83.67
2023-02-16T21:46:31.356Z,81.83
2023-02-16T21:48:58.094Z,87.57
2023-02-16T21:51:28.882Z,88.77
2023-02-16T21:54:01.520Z,89.93
2023-02-16T21:56:32.167Z,88.70
2023-02-16T21:59:00.354Z,83.47
2023-02-16T22:01:30.113Z,90.07
2023-02-16T22:03:59.490Z,80.20
2023-02-16T22:06:28.587Z,83.90
2023-02-16T22:08:57.999Z,84.67
2023-02-16T22:11:26.146Z,81.20
2023-02-16T22:13:55.906Z,87.00
2023-02-16T22:16:24.968Z,78.07
2023-02-16T22:18:57.509Z,76.70
2023-02-16T22:21:27.382Z,73.50
2023-02-16T22:23:55.554Z,76.70
2023-02-16T22:26:27.110Z,74.47
2023-02-16T22:28:55.753Z,74.50
2023-02-16T22:31:27.929Z,67.10
2023-02-16T22:33:57.080Z,73.60
2023-02-16T22:36:25.022Z,65.73
2023-02-16T22:38:53.488Z,61.50
2023-02-16T22:41:22.386Z,61.37
2023-02-16T22:43:54.891Z,63.60
2023-02-16T22:46:23.928Z,64.23
2023-02-16T22:48:51.966Z,59.23
2023-02-16T22:51:21.686Z,63.13
2023-02-16T22:53:49.709Z,58.30
2023-02-16T22:56:18.800Z,61.57
2023-02-16T22:58:46.613Z,57.17
2023-02-16T23:01:18.383Z,55.93
2023-02-16T23:03:50.215Z,56.10
2023-02-16T23:06:20.385Z,55.00
2023-02-16T23:08:52.445Z,55.37
2023-02-16T23:11:20.280Z,56.43
2023-02-16T23:13:48.019Z,61.30
2023-02-16T23:16:21.742Z,64.03
2023-02-16T23:18:50.399Z,59.43
2023-02-16T23:21:20.170Z,55.47
2023-02-16T23:23:49.130Z,58.50
2023-02-16T23:26:18.312Z,54.57
2023-02-16T23:28:46.429Z,55.50
2023-02-16T23:31:14.244Z,54.43
2023-02-16T23:33:43.654Z,52.43
2023-02-16T23:36:11.582Z,57.47
2023-02-16T23:38:39.625Z,54.77
2023-02-16T23:41:09.107Z,54.17
2023-02-16T23:43:36.909Z,55.50
2023-02-16T23:46:05.542Z,51.27
2023-02-16T23:48:35.600Z,52.40
2023-02-16T23:51:05.096Z,53.70
2023-02-16T23:53:33.078Z,53.20
2023-02-16T23:56:01.785Z,51.20
2023-02-16T23:58:30.179Z,51.83
